Time;durP1;ratioP1;P1;durP2;ratioP2;P2;SDS_P1;SDS_P2;PMS_P1;PMS_P2;Temp;Humidity;BMP_temperature;BMP_pressure;BME280_temperature;BME280_humidity;BME280_pressure;Samples;Min_cycle;Max_cycle;Signal;HPM_P1;HPM_P2
2021/10/27 00:02:17;;;;;;;9.95;5.20;;;;;;;2.36;100.00;96406.66;5070974;28;20040;-81
2021/10/27 00:04:43;;;;;;;9.30;4.80;;;;;;;2.29;100.00;96408.44;5050837;28;20044;-81
2021/10/27 00:07:08;;;;;;;8.00;4.72;;;;;;;2.31;100.00;96411.63;5075457;28;20068;-81
2021/10/27 00:09:34;;;;;;;8.52;4.80;;;;;;;2.32;100.00;96405.44;5050388;28;20589;-80
2021/10/27 00:12:00;;;;;;;8.85;4.38;;;;;;;2.40;100.00;96402.69;5070249;28;20048;-82
2021/10/27 00:14:25;;;;;;;9.63;4.90;;;;;;;2.32;100.00;96413.22;5088844;28;20080;-81
2021/10/27 00:16:51;;;;;;;9.95;5.10;;;;;;;2.13;100.00;96407.75;5089430;28;20046;-82
2021/10/27 00:19:17;;;;;;;9.18;4.97;;;;;;;2.10;100.00;96402.97;5064248;28;20037;-83
2021/10/27 00:21:42;;;;;;;8.27;4.30;;;;;;;2.04;100.00;96398.53;5088024;28;20047;-82
2021/10/27 00:24:08;;;;;;;10.95;4.88;;;;;;;1.95;100.00;96410.06;5054066;28;20051;-81
2021/10/27 00:26:33;;;;;;;11.23;4.85;;;;;;;1.90;100.00;96408.84;5072452;28;20577;-80
2021/10/27 00:28:59;;;;;;;8.90;4.95;;;;;;;1.94;100.00;96413.66;5073817;28;20036;-81
2021/10/27 00:31:25;;;;;;;8.80;4.82;;;;;;;1.98;100.00;96409.69;5066607;28;20433;-80
2021/10/27 00:33:50;;;;;;;8.20;4.70;;;;;;;2.06;100.00;96406.94;5072621;28;20092;-81
2021/10/27 00:36:16;;;;;;;9.45;4.85;;;;;;;2.12;100.00;96406.16;5083303;28;20060;-80
2021/10/27 00:38:42;;;;;;;7.60;4.20;;;;;;;2.15;100.00;96416.16;5071640;28;20040;-81
2021/10/27 00:41:10;;;;;;;9.55;4.68;;;;;;;2.11;100.00;96414.94;5075607;28;20044;-80
2021/10/27 00:43:37;;;;;;;8.30;4.90;;;;;;;2.00;100.00;96407.72;5072139;28;20127;-78
2021/10/27 00:46:04;;;;;;;9.57;4.68;;;;;;;1.97;100.00;96416.69;5079705;28;20052;-81
2021/10/27 00:48:29;;;;;;;8.43;4.50;;;;;;;1.93;100.00;96422.47;5072040;28;20055;-82
2021/10/27 00:50:55;;;;;;;9.45;4.88;;;;;;;1.95;100.00;96420.47;5070622;28;20421;-80
2021/10/27 00:53:21;;;;;;;8.80;4.85;;;;;;;2.05;100.00;96416.53;5062174;28;20051;-79
2021/10/27 00:55:47;;;;;;;12.98;4.20;;;;;;;2.10;100.00;96413.34;5091520;28;20040;-79
2021/10/27 00:58:13;;;;;;;7.53;4.10;;;;;;;2.04;100.00;96409.72;5084306;28;20081;-79
2021/10/27 01:00:39;;;;;;;8.25;4.50;;;;;;;1.96;100.00;96406.50;5073183;28;20080;-80
2021/10/27 01:03:05;;;;;;;7.32;4.15;;;;;;;1.86;100.00;96402.44;5065316;28;20493;-79
2021/10/27 01:05:31;;;;;;;8.50;4.38;;;;;;;1.82;100.00;96401.22;5067514;28;20140;-79
2021/10/27 01:07:57;;;;;;;9.20;4.60;;;;;;;1.86;100.00;96412.81;5064434;28;20486;-81
2021/10/27 01:10:23;;;;;;;8.23;4.20;;;;;;;1.86;100.00;96412.03;5062552;28;20036;-79
2021/10/27 01:12:48;;;;;;;7.53;4.35;;;;;;;1.73;100.00;96402.38;5069610;28;20040;-80
2021/10/27 01:15:14;;;;;;;6.85;4.22;;;;;;;1.66;100.00;96402.31;5074199;28;20064;-79
2021/10/27 01:17:40;;;;;;;7.63;4.20;;;;;;;1.64;100.00;96403.50;5061687;28;20043;-81
2021/10/27 01:20:07;;;;;;;8.88;4.47;;;;;;;1.63;100.00;96401.91;5087119;28;20048;-80
2021/10/27 01:22:35;;;;;;;10.48;4.00;;;;;;;1.56;100.00;96392.28;5081411;28;20040;-80
2021/10/27 01:25:04;;;;;;;9.00;4.10;;;;;;;1.52;100.00;96396.28;5090867;28;20517;-79
2021/10/27 01:27:31;;;;;;;7.72;4.15;;;;;;;1.55;100.00;96390.69;5081371;28;20506;-80
2021/10/27 01:29:57;;;;;;;7.18;3.63;;;;;;;1.58;100.00;96399.09;5070297;28;20561;-79
2021/10/27 01:32:37;;;;;;;8.25;4.22;;;;;;;1.50;100.00;96393.06;5069686;28;20460;-80
2021/10/27 01:35:04;;;;;;;6.68;3.90;;;;;;;1.51;100.00;96399.84;5075476;28;20056;-79
2021/10/27 01:37:29;;;;;;;7.60;4.15;;;;;;;1.52;100.00;96396.28;5066108;28;20047;-78
2021/10/27 01:39:55;;;;;;;8.77;4.15;;;;;;;1.49;100.00;96396.63;5063586;28;20072;-79
2021/10/27 01:42:21;;;;;;;8.52;4.53;;;;;;;1.47;100.00;96388.25;5061646;28;20036;-80
2021/10/27 01:44:47;;;;;;;10.27;4.60;;;;;;;1.51;100.00;96391.28;5072256;28;20044;-80
2021/10/27 01:47:14;;;;;;;8.18;4.30;;;;;;;1.55;100.00;96390.69;5082822;28;20052;-80
2021/10/27 01:49:39;;;;;;;6.97;4.10;;;;;;;1.48;100.00;96394.22;5068243;28;20044;-79
2021/10/27 01:52:05;;;;;;;7.05;4.07;;;;;;;1.46;100.00;96397.00;5071248;28;20044;-80
2021/10/27 01:54:30;;;;;;;7.15;3.83;;;;;;;1.39;100.00;96396.16;5051487;28;20486;-79
2021/10/27 01:56:57;;;;;;;9.82;4.40;;;;;;;1.31;100.00;96393.72;5070933;28;20048;-80
2021/10/27 01:59:23;;;;;;;5.72;3.72;;;;;;;1.35;100.00;96394.94;5049945;28;20045;-80
2021/10/27 02:01:50;;;;;;;7.07;3.88;;;;;;;1.33;100.00;96396.94;5053247;28;20406;-81
2021/10/27 02:04:17;;;;;;;6.35;3.70;;;;;;;1.34;100.00;96399.34;5090013;28;20081;-79
2021/10/27 02:06:43;;;;;;;5.78;3.70;;;;;;;1.35;100.00;96394.94;5065814;28;20061;-80
2021/10/27 02:09:08;;;;;;;8.65;4.10;;;;;;;1.38;100.00;96389.41;5051772;28;20048;-79
2021/10/27 02:11:34;;;;;;;6.90;3.88;;;;;;;1.33;100.00;96391.75;5051230;28;20044;-79
2021/10/27 02:14:00;;;;;;;7.70;4.07;;;;;;;1.27;100.00;96392.50;5077634;28;20410;-79
2021/10/27 02:16:26;;;;;;;8.35;3.85;;;;;;;1.21;100.00;96400.03;5069788;28;20573;-80
2021/10/27 02:18:52;;;;;;;6.93;3.53;;;;;;;1.13;100.00;96397.56;5056283;28;20545;-80
2021/10/27 02:21:19;;;;;;;7.35;3.92;;;;;;;1.06;100.00;96401.91;5083659;28;20557;-80
2021/10/27 02:23:44;;;;;;;6.63;3.83;;;;;;;1.05;100.00;96400.31;5070992;28;20078;-79
2021/10/27 02:26:10;;;;;;;8.43;4.30;;;;;;;1.00;100.00;96402.66;5089853;28;20122;-79
2021/10/27 02:28:36;;;;;;;7.45;3.78;;;;;;;1.00;100.00;96392.28;5057555;28;20418;-78
2021/10/27 02:31:02;;;;;;;7.05;4.20;;;;;;;0.88;100.00;96388.59;5069243;28;20051;-80
2021/10/27 02:33:28;;;;;;;8.32;4.18;;;;;;;0.85;100.00;96395.75;5055146;28;20036;-80
2021/10/27 02:35:55;;;;;;;7.60;4.03;;;;;;;0.98;100.00;96407.25;5060825;28;20041;-81
2021/10/27 02:38:20;;;;;;;5.10;3.38;;;;;;;1.03;100.00;96407.47;5067432;28;20419;-80
2021/10/27 02:40:47;;;;;;;7.25;3.92;;;;;;;1.10;100.00;96413.50;5076681;28;20048;-80
2021/10/27 02:43:13;;;;;;;5.95;3.53;;;;;;;1.16;100.00;96401.59;5076991;28;20040;-80
2021/10/27 02:45:39;;;;;;;6.90;4.32;;;;;;;1.14;100.00;96399.19;5079494;28;20036;-81
2021/10/27 02:48:05;;;;;;;7.55;3.83;;;;;;;1.16;100.00;96402.38;5079110;28;20505;-80
2021/10/27 02:50:30;;;;;;;6.28;4.20;;;;;;;1.01;100.00;96412.84;5085101;28;20043;-81
2021/10/27 02:52:56;;;;;;;7.10;3.70;;;;;;;0.94;100.00;96403.41;5057000;28;20036;-80
2021/10/27 02:55:21;;;;;;;7.95;4.00;;;;;;;1.07;100.00;96402.72;5089364;28;20475;-82
2021/10/27 02:57:47;;;;;;;6.95;3.90;;;;;;;1.02;100.00;96400.66;5059393;28;20097;-80
2021/10/27 03:00:13;;;;;;;5.82;3.70;;;;;;;1.13;100.00;96407.16;5089148;28;20036;-80
2021/10/27 03:02:39;;;;;;;7.07;3.40;;;;;;;1.01;100.00;96412.84;5088035;28;20094;-80
2021/10/27 03:05:07;;;;;;;7.97;3.65;;;;;;;0.98;100.00;96410.63;5076007;28;20453;-81
2021/10/27 03:07:32;;;;;;;6.45;3.58;;;;;;;1.01;100.00;96409.44;5072745;28;20058;-80
2021/10/27 03:09:59;;;;;;;7.63;3.53;;;;;;;1.08;100.00;96407.72;5074908;28;20041;-80
2021/10/27 03:12:24;;;;;;;7.47;3.75;;;;;;;1.02;100.00;96424.00;5060076;28;20048;-80
2021/10/27 03:14:50;;;;;;;9.02;3.60;;;;;;;0.93;100.00;96422.53;5062116;28;20040;-80
2021/10/27 03:17:17;;;;;;;6.53;3.50;;;;;;;0.97;100.00;96418.59;5088925;28;20119;-81
2021/10/27 03:19:44;;;;;;;6.97;3.65;;;;;;;0.95;100.00;96415.34;5081016;28;20478;-80
2021/10/27 03:22:09;;;;;;;7.10;3.60;;;;;;;0.95;100.00;96415.34;5088484;28;20048;-81
2021/10/27 03:24:35;;;;;;;9.10;3.78;;;;;;;0.83;100.00;96418.47;5088127;28;20049;-80
2021/10/27 03:27:01;;;;;;;9.23;3.92;;;;;;;0.80;100.00;96412.84;5088246;28;20051;-80
2021/10/27 03:29:26;;;;;;;7.45;4.00;;;;;;;0.81;100.00;96420.44;5061600;28;20517;-81
2021/10/27 03:31:52;;;;;;;7.75;3.72;;;;;;;0.80;100.00;96418.03;5035147;28;20067;-80
2021/10/27 03:34:17;;;;;;;8.85;3.63;;;;;;;0.77;100.00;96419.19;5075675;28;20041;-81
2021/10/27 03:36:43;;;;;;;7.57;3.60;;;;;;;0.78;100.00;96415.63;5049801;28;20511;-80
2021/10/27 03:39:09;;;;;;;5.97;3.50;;;;;;;0.86;100.00;96412.91;5062620;28;20048;-80
2021/10/27 03:41:34;;;;;;;6.93;3.90;;;;;;;0.97;100.00;96418.59;5053781;28;20047;-80
2021/10/27 03:44:00;;;;;;;9.02;3.38;;;;;;;0.91;100.00;96419.34;5086976;28;20044;-80
2021/10/27 03:46:26;;;;;;;6.60;3.60;;;;;;;0.93;100.00;96418.13;5088358;28;20044;-80
2021/10/27 03:48:52;;;;;;;8.63;3.80;;;;;;;0.82;100.00;96419.44;5070016;28;20048;-80
2021/10/27 03:51:18;;;;;;;6.55;3.45;;;;;;;0.67;100.00;96416.09;5054403;28;20051;-80
2021/10/27 03:53:44;;;;;;;8.32;4.15;;;;;;;0.69;100.00;96412.34;5075656;28;20131;-80
2021/10/27 03:56:09;;;;;;;6.50;3.40;;;;;;;0.65;100.00;96416.28;5072351;28;20036;-80
2021/10/27 03:58:35;;;;;;;7.22;3.95;;;;;;;0.62;100.00;96418.47;5064673;28;20142;-79
2021/10/27 04:01:01;;;;;;;6.90;3.22;;;;;;;0.69;100.00;96416.75;5034779;28;20495;-80
2021/10/27 04:03:26;;;;;;;6.55;3.25;;;;;;;0.65;100.00;96420.69;5078967;28;20066;-79
2021/10/27 04:05:52;;;;;;;8.02;3.55;;;;;;;0.54;100.00;96423.75;5091676;28;20036;-80
2021/10/27 04:08:18;;;;;;;7.07;3.28;;;;;;;0.54;100.00;96423.75;5051374;28;20068;-79
2021/10/27 04:10:45;;;;;;;7.85;3.47;;;;;;;0.52;100.00;96422.13;5064528;28;20066;-79
2021/10/27 04:13:16;;;;;;;6.72;3.53;;;;;;;0.57;100.00;96428.56;5069533;28;20641;-79
2021/10/27 04:15:42;;;;;;;6.13;3.30;;;;;;;0.62;100.00;96436.59;5071977;28;20040;-79
2021/10/27 04:18:08;;;;;;;6.25;3.40;;;;;;;0.54;100.00;96434.09;5077402;28;20544;-80
2021/10/27 04:20:33;;;;;;;8.10;3.33;;;;;;;0.50;100.00;96434.47;5085096;28;20050;-80
2021/10/27 04:22:59;;;;;;;5.82;3.58;;;;;;;0.43;100.00;96438.78;5065584;28;20032;-80
2021/10/27 04:25:25;;;;;;;9.02;3.47;;;;;;;0.51;100.00;96441.25;5092427;28;20236;-80
2021/10/27 04:27:50;;;;;;;6.93;3.35;;;;;;;0.52;100.00;96432.50;5061473;28;20045;-79
2021/10/27 04:30:16;;;;;;;8.30;3.70;;;;;;;0.45;100.00;96441.19;5069586;28;20047;-80
2021/10/27 04:32:41;;;;;;;6.47;3.38;;;;;;;0.49;100.00;96451.00;5072977;28;20036;-80
2021/10/27 04:35:09;;;;;;;7.22;3.55;;;;;;;0.47;100.00;96445.19;5052842;28;20040;-80
2021/10/27 04:37:38;;;;;;;6.68;3.30;;;;;;;0.42;100.00;96442.34;5085321;28;20075;-81
2021/10/27 04:40:06;;;;;;;6.25;3.40;;;;;;;0.43;100.00;96449.16;5054908;28;20076;-80
2021/10/27 04:42:31;;;;;;;5.50;3.08;;;;;;;0.18;100.00;96435.69;5060465;28;20429;-80
2021/10/27 04:44:57;;;;;;;6.88;3.38;;;;;;;0.32;100.00;96441.84;5073941;28;20040;-81
2021/10/27 04:47:23;;;;;;;6.28;3.60;;;;;;;0.45;100.00;96447.16;5091371;28;20443;-80
2021/10/27 04:49:50;;;;;;;6.45;3.33;;;;;;;0.41;100.00;96450.31;5071508;28;20048;-80
2021/10/27 04:52:15;;;;;;;7.20;3.45;;;;;;;0.33;100.00;96440.84;5051657;28;20063;-80
2021/10/27 04:54:42;;;;;;;6.85;3.15;;;;;;;0.17;100.00;96440.06;5067222;28;20036;-81
2021/10/27 04:57:08;;;;;;;7.25;3.50;;;;;;;0.29;100.00;96442.19;5071324;28;20036;-80
2021/10/27 04:59:44;;;;;;;10.85;3.45;;;;;;;0.43;100.00;96443.97;5052866;28;20052;-80
2021/10/27 05:02:13;;;;;;;7.25;3.53;;;;;;;0.46;100.00;96453.13;5063319;28;20071;-81
2021/10/27 05:04:41;;;;;;;5.43;3.10;;;;;;;0.31;100.00;96455.75;5079341;28;20087;-79
2021/10/27 05:07:08;;;;;;;6.13;3.35;;;;;;;0.22;100.00;96441.31;5056308;28;20461;-80
2021/10/27 05:09:34;;;;;;;6.72;3.47;;;;;;;0.38;100.00;96451.47;5051553;28;20045;-80
2021/10/27 05:12:01;;;;;;;6.10;3.20;;;;;;;0.27;100.00;96447.53;5079480;28;20043;-80
2021/10/27 05:14:26;;;;;;;7.00;3.10;;;;;;;0.17;100.00;96450.44;5075816;28;20098;-81
2021/10/27 05:16:52;;;;;;;6.00;3.40;;;;;;;-0.01;100.00;96437.06;5070355;28;20044;-80
2021/10/27 05:19:17;;;;;;;6.80;3.30;;;;;;;0.01;100.00;96445.44;5069629;28;20055;-81
2021/10/27 05:21:43;;;;;;;7.70;3.40;;;;;;;-0.07;100.00;96448.09;5081085;28;20036;-80
2021/10/27 05:24:09;;;;;;;6.75;3.95;;;;;;;-0.07;100.00;96448.09;5090659;28;20700;-79
2021/10/27 05:26:34;;;;;;;5.68;3.47;;;;;;;-0.04;100.00;96450.34;5088999;28;20101;-80
2021/10/27 05:29:00;;;;;;;6.53;3.55;;;;;;;-0.06;100.00;96449.72;5088339;28;20040;-81
2021/10/27 05:31:25;;;;;;;8.77;3.60;;;;;;;-0.05;100.00;96452.13;5090949;28;20578;-82
2021/10/27 05:33:51;;;;;;;7.88;3.58;;;;;;;-0.10;100.00;96458.81;5054246;28;20525;-80
2021/10/27 05:36:17;;;;;;;9.93;3.63;;;;;;;-0.15;100.00;96450.78;5056049;28;20032;-81
2021/10/27 05:38:42;;;;;;;8.90;4.10;;;;;;;-0.11;100.00;96452.84;5071652;28;20048;-81
2021/10/27 05:41:08;;;;;;;8.77;3.80;;;;;;;0.04;100.00;96452.81;5074701;28;20036;-81
2021/10/27 05:43:35;;;;;;;8.05;3.60;;;;;;;0.03;100.00;96453.84;5063678;28;20509;-80
2021/10/27 05:46:01;;;;;;;8.15;4.05;;;;;;;-0.11;100.00;96454.63;5090768;28;20642;-80
2021/10/27 05:48:32;;;;;;;12.77;3.72;;;;;;;-0.11;100.00;96462.41;5042319;28;20045;-80
2021/10/27 05:56:20;;;;;;;7.85;3.45;;;;;;;-0.01;100.00;96458.53;5070592;28;20418;-80
2021/10/27 05:58:46;;;;;;;7.13;3.45;;;;;;;0.02;100.00;96462.56;5043649;28;20785;-81
2021/10/27 06:01:13;;;;;;;6.88;3.60;;;;;;;-0.07;100.00;96468.78;5074859;28;20050;-80
2021/10/27 06:03:38;;;;;;;7.15;3.42;;;;;;;0.10;100.00;96475.44;5070421;28;20456;-81
2021/10/27 06:06:04;;;;;;;7.55;3.50;;;;;;;0.01;100.00;96466.13;5070420;28;20043;-82
2021/10/27 06:08:30;;;;;;;6.55;3.47;;;;;;;-0.01;100.00;96473.28;5073265;28;20036;-82
2021/10/27 06:10:58;;;;;;;5.82;3.28;;;;;;;-0.01;100.00;96473.28;5074437;28;20577;-83
2021/10/27 06:13:32;;;;;;;5.35;3.20;;;;;;;-0.07;100.00;96469.63;5054170;28;20520;-82
2021/10/27 06:15:58;;;;;;;7.00;3.20;;;;;;;0.01;100.00;96475.69;5074340;28;20517;-82
2021/10/27 06:18:23;;;;;;;14.15;4.40;;;;;;;0.02;100.00;96462.56;5069034;28;20048;-85
2021/10/27 06:20:50;;;;;;;8.18;4.00;;;;;;;0.07;100.00;96470.63;5067949;28;20171;-86
2021/10/27 06:23:16;;;;;;;7.40;3.78;;;;;;;0.02;100.00;96470.34;5069881;28;20563;-85
2021/10/27 06:25:42;;;;;;;8.30;3.70;;;;;;;0.02;100.00;96483.28;5052426;28;20044;-85
2021/10/27 06:28:11;;;;;;;11.50;4.18;;;;;;;0.00;100.00;96474.91;5050540;28;20072;-85
2021/10/27 06:30:46;;;;;;;9.85;4.68;;;;;;;0.01;100.00;96476.47;5052101;28;20039;-85
2021/10/27 06:36:12;;;;;;;7.95;3.40;;;;;;;0.11;100.00;96495.13;5061499;28;20056;-84
2021/10/27 06:46:43;;;;;;;25.42;7.03;;;;;;;0.73;100.00;96506.03;5085597;28;20047;-82
2021/10/27 06:49:09;;;;;;;19.85;5.30;;;;;;;0.62;100.00;96498.78;5071706;28;20123;-83
2021/10/27 06:51:35;;;;;;;18.20;6.82;;;;;;;0.78;100.00;96502.94;5067230;28;20087;-82
2021/10/27 06:54:01;;;;;;;32.65;10.75;;;;;;;0.75;100.00;96503.28;5052949;28;20044;-83
2021/10/27 06:56:27;;;;;;;31.08;11.15;;;;;;;0.61;100.00;96499.75;5045012;28;20488;-83
2021/10/27 06:59:07;;;;;;;18.23;6.97;;;;;;;0.64;100.00;96501.97;5068975;28;20040;-82
2021/10/27 07:15:04;;;;;;;10.88;4.45;;;;;;;1.13;100.00;96501.28;5072077;28;20412;-82
2021/10/27 07:17:32;;;;;;;11.60;4.40;;;;;;;1.14;100.00;96502.88;5071837;28;20436;-82
2021/10/27 07:20:05;;;;;;;7.90;4.15;;;;;;;1.20;100.00;96499.53;5063834;28;20036;-82
2021/10/27 07:22:31;;;;;;;10.63;4.25;;;;;;;1.26;100.00;96505.00;5061850;28;20493;-83
2021/10/27 07:24:58;;;;;;;8.20;4.50;;;;;;;1.28;100.00;96503.00;5087983;28;20038;-83
2021/10/27 07:27:24;;;;;;;12.38;4.53;;;;;;;1.44;100.00;96507.94;5088483;28;20089;-83
2021/10/27 07:29:50;;;;;;;9.20;3.75;;;;;;;1.49;100.00;96492.63;5067148;28;20040;-81
2021/10/27 07:32:17;;;;;;;9.55;4.68;;;;;;;1.58;100.00;96505.47;5076784;28;20095;-81
2021/10/27 07:35:04;;;;;;;8.90;4.32;;;;;;;1.66;100.00;96505.31;5059466;28;20037;-81
2021/10/27 07:43:04;;;;;;;9.75;4.47;;;;;;;1.94;100.00;96492.34;5067695;28;20041;-84
2021/10/27 07:45:31;;;;;;;11.70;4.38;;;;;;;2.09;100.00;96500.03;5069387;28;20521;-82
2021/10/27 07:47:58;;;;;;;11.38;4.95;;;;;;;2.21;100.00;96498.50;5065082;28;20048;-80
2021/10/27 07:50:25;;;;;;;9.45;4.18;;;;;;;2.34;100.00;96491.75;5043575;28;20040;-79
2021/10/27 07:52:52;;;;;;;11.13;4.43;;;;;;;2.44;100.00;96500.00;5068113;28;20086;-79
2021/10/27 07:55:18;;;;;;;8.68;4.47;;;;;;;2.47;100.00;96496.22;5046167;28;20040;-82
2021/10/27 07:57:44;;;;;;;9.23;4.90;;;;;;;2.64;100.00;96496.69;5063112;28;20071;-81
2021/10/27 08:00:11;;;;;;;10.18;4.68;;;;;;;2.80;100.00;96506.72;5043311;28;20044;-80
2021/10/27 08:02:37;;;;;;;8.80;4.82;;;;;;;2.91;100.00;96497.56;5058894;28;20056;-82
2021/10/27 08:05:03;;;;;;;10.93;5.32;;;;;;;3.06;100.00;96500.00;5056808;28;20044;-82
2021/10/27 08:07:29;;;;;;;13.40;5.20;;;;;;;3.20;100.00;96500.84;5052098;28;20086;-80
2021/10/27 08:09:55;;;;;;;12.20;5.00;;;;;;;3.28;100.00;96496.25;5061949;28;20127;-82
2021/10/27 08:12:21;;;;;;;13.40;5.70;;;;;;;3.42;100.00;96493.63;5046893;28;20095;-82
2021/10/27 08:14:47;;;;;;;9.13;5.03;;;;;;;3.59;100.00;96497.47;5055199;28;20082;-82
2021/10/27 08:17:13;;;;;;;9.85;5.22;;;;;;;3.71;100.00;96502.09;5047893;28;20048;-82
2021/10/27 08:19:38;;;;;;;17.05;6.07;;;;;;;3.89;100.00;96504.84;5065300;28;20032;-83
2021/10/27 08:22:06;;;;;;;14.85;6.43;;;;;;;4.06;100.00;96499.22;5046611;28;20060;-81
2021/10/27 08:24:32;;;;;;;15.02;6.45;;;;;;;4.19;100.00;96493.97;5057469;28;20414;-81
2021/10/27 08:27:06;;;;;;;13.32;5.70;;;;;;;4.22;100.00;96488.34;5058423;28;20056;-80
2021/10/27 08:29:37;;;;;;;11.32;5.40;;;;;;;4.40;100.00;96499.97;5062839;28;20036;-81
2021/10/27 08:32:14;;;;;;;11.70;6.50;;;;;;;4.60;100.00;96485.03;5059836;28;20421;-80
2021/10/27 08:34:46;;;;;;;15.93;6.47;;;;;;;4.83;100.00;96481.13;5055525;28;20040;-80
2021/10/27 08:37:12;;;;;;;12.98;5.65;;;;;;;4.90;100.00;96483.69;5059317;28;20064;-85
2021/10/27 08:39:37;;;;;;;11.50;4.97;;;;;;;5.06;100.00;96482.38;5061802;28;20044;-81
2021/10/27 08:42:03;;;;;;;12.48;5.38;;;;;;;5.28;100.00;96478.44;5051795;28;20064;-82
2021/10/27 08:44:29;;;;;;;16.35;5.30;;;;;;;5.62;100.00;96476.38;5043316;28;20049;-81
2021/10/27 08:46:57;;;;;;;11.77;4.88;;;;;;;5.67;100.00;96473.91;5071417;28;20425;-80
2021/10/27 08:49:25;;;;;;;12.38;5.03;;;;;;;5.77;100.00;96472.66;5063672;28;20051;-80
2021/10/27 08:51:53;;;;;;;10.45;5.18;;;;;;;5.91;100.00;96463.69;5068189;28;20052;-80
2021/10/27 08:54:18;;;;;;;11.88;5.28;;;;;;;5.98;100.00;96474.91;5061191;28;20147;-82
2021/10/27 08:56:45;;;;;;;10.02;5.10;;;;;;;6.15;100.00;96480.34;5047310;28;20068;-80
2021/10/27 08:59:29;;;;;;;12.98;5.75;;;;;;;6.18;100.00;96474.69;5052726;28;20041;-79
2021/10/27 09:16:11;;;;;;;9.53;5.23;;;;;;;7.41;98.58;96471.91;5071195;28;20430;-80
2021/10/27 10:06:13;;;;;;;9.43;4.88;;;;;;;14.40;64.80;96444.44;5062906;28;20049;-81
2021/10/27 10:08:46;;;;;;;9.30;4.70;;;;;;;14.01;66.54;96449.31;5072698;28;20410;-80
2021/10/27 10:11:12;;;;;;;10.32;4.90;;;;;;;14.76;63.94;96437.16;5060274;28;20044;-82
2021/10/27 10:13:39;;;;;;;8.93;4.80;;;;;;;14.87;64.68;96437.91;5062503;28;20623;-84
2021/10/27 10:16:06;;;;;;;9.10;5.45;;;;;;;15.34;61.31;96435.72;5089692;28;20044;-86
2021/10/27 10:18:32;;;;;;;10.60;4.95;;;;;;;15.55;62.93;96436.38;5082713;28;20472;-85
2021/10/27 10:20:59;;;;;;;9.15;4.93;;;;;;;15.22;61.99;96434.22;5084392;28;20044;-86
2021/10/27 10:23:25;;;;;;;12.73;4.57;;;;;;;14.35;65.71;96440.75;5061276;28;20138;-85
2021/10/27 10:25:54;;;;;;;9.38;4.43;;;;;;;15.03;62.52;96439.38;5080961;28;20068;-82
2021/10/27 10:28:23;;;;;;;10.68;4.93;;;;;;;15.17;62.13;96436.91;5068225;28;20040;-85
2021/10/27 10:30:55;;;;;;;7.38;4.35;;;;;;;15.65;60.61;96430.97;5073925;28;20408;-85
2021/10/27 10:33:40;;;;;;;9.18;4.82;;;;;;;16.50;58.10;96433.31;5072911;28;20897;-85
2021/10/27 10:44:48;;;;;;;11.30;4.70;;;;;;;16.57;57.27;96429.22;5068103;28;20045;-84
2021/10/27 11:27:35;;;;;;;11.43;5.72;;;;;;;16.44;57.22;96380.25;5077363;28;19931;-83
2021/10/27 11:41:10;;;;;;;14.40;6.25;;;;;;;17.81;54.24;96356.34;5073221;28;20037;-79
2021/10/27 11:43:57;;;;;;;10.52;5.78;;;;;;;17.53;53.44;96346.72;5070790;28;20079;-78
2021/10/27 11:46:43;;;;;;;11.10;5.88;;;;;;;17.46;53.03;96342.59;5044608;28;20044;-82
2021/10/27 11:49:13;;;;;;;11.38;6.22;;;;;;;18.35;51.22;96335.31;5042124;28;20041;-80
2021/10/27 11:51:39;;;;;;;10.27;5.60;;;;;;;18.06;52.91;96342.84;5039055;28;20126;-80
2021/10/27 11:54:14;;;;;;;9.82;4.85;;;;;;;18.61;51.98;96334.00;5060394;28;20041;-80
2021/10/27 11:56:40;;;;;;;10.48;5.82;;;;;;;17.96;53.82;96328.66;5063530;28;20052;-83
2021/10/27 11:59:05;;;;;;;10.82;6.05;;;;;;;17.23;56.02;96322.25;5065263;28;20047;-81
2021/10/27 12:01:34;;;;;;;10.02;5.70;;;;;;;18.14;50.64;96308.31;5066303;28;20056;-80
2021/10/27 12:04:05;;;;;;;8.40;4.68;;;;;;;17.41;53.86;96313.44;5066010;28;20071;-80
2021/10/27 12:14:58;;;;;;;7.70;4.60;;;;;;;18.73;49.98;96301.47;5069921;28;20041;-81
2021/10/27 12:20:02;;;;;;;11.10;5.85;;;;;;;18.27;53.01;96300.59;5068620;28;20048;-81
2021/10/27 12:22:28;;;;;;;9.02;5.20;;;;;;;17.81;54.17;96297.78;5063124;28;20165;-81
2021/10/27 12:25:00;;;;;;;8.30;5.05;;;;;;;18.45;51.24;96289.03;5053282;28;20072;-83
2021/10/27 12:27:32;;;;;;;9.43;5.75;;;;;;;18.03;53.85;96291.00;5064966;28;20583;-78
2021/10/27 12:30:04;;;;;;;10.93;5.47;;;;;;;18.99;52.64;96283.00;5061247;28;20044;-80
2021/10/27 12:32:32;;;;;;;9.38;5.30;;;;;;;18.09;51.45;96287.13;5067449;28;20057;-79
2021/10/27 12:35:10;;;;;;;11.07;5.22;;;;;;;18.32;52.12;96279.97;5079889;28;20051;-80
2021/10/27 12:38:00;;;;;;;11.32;6.20;;;;;;;16.62;55.56;96276.91;5060514;28;20418;-78
2021/10/27 12:40:45;;;;;;;9.18;6.07;;;;;;;17.17;55.42;96275.53;5059259;28;20056;-78
2021/10/27 12:43:14;;;;;;;11.02;5.57;;;;;;;18.17;53.38;96280.28;5069123;28;20061;-78
2021/10/27 12:45:45;;;;;;;9.70;4.90;;;;;;;16.85;54.14;96274.44;5058500;28;20036;-79
2021/10/27 12:48:12;;;;;;;11.77;5.72;;;;;;;15.54;58.05;96275.63;5056726;28;20064;-80
2021/10/27 12:51:01;;;;;;;13.25;7.35;;;;;;;15.10;61.68;96281.88;5061532;28;20040;-81
2021/10/27 12:53:42;;;;;;;16.27;7.45;;;;;;;15.06;63.34;96276.34;5070232;28;20585;-78
2021/10/27 12:56:09;;;;;;;12.10;6.82;;;;;;;14.96;63.22;96279.88;5067773;28;20045;-79
2021/10/27 12:58:40;;;;;;;11.77;5.88;;;;;;;15.41;61.17;96275.22;5052858;28;20810;-80
2021/10/27 13:01:31;;;;;;;14.93;7.70;;;;;;;14.44;65.24;96268.03;5064430;28;20086;-81
2021/10/27 13:06:49;;;;;;;14.43;5.40;;;;;;;14.71;65.61;96265.78;5072616;28;20140;-77
2021/10/27 13:09:25;;;;;;;12.90;5.85;;;;;;;13.90;64.85;96254.59;5063896;28;20113;-81
2021/10/27 13:17:48;;;;;;;23.30;6.65;;;;;;;13.32;68.50;96253.16;5071615;28;20055;-79
2021/10/27 13:30:14;;;;;;;20.17;6.82;;;;;;;12.85;72.03;96249.00;5064523;28;20064;-80
2021/10/27 13:32:50;;;;;;;11.93;6.60;;;;;;;12.90;71.41;96241.09;5087054;28;20427;-79
2021/10/27 13:35:16;;;;;;;14.68;7.40;;;;;;;12.79;71.93;96239.53;5086549;28;20044;-79
2021/10/27 13:37:42;;;;;;;16.73;6.80;;;;;;;12.88;70.27;96237.91;5056948;28;20053;-79
2021/10/27 13:40:09;;;;;;;14.23;5.78;;;;;;;12.82;70.36;96233.69;5090917;28;20062;-79
2021/10/27 14:07:23;;;;;;;13.75;7.07;;;;;;;12.45;72.85;96218.91;5068073;28;20561;-78
2021/10/27 14:09:56;;;;;;;17.33;8.05;;;;;;;12.36;72.90;96215.22;5070484;28;20045;-79
2021/10/27 15:19:54;;;;;;;16.23;7.90;;;;;;;11.21;77.61;96202.72;5067406;28;20051;-78
2021/10/27 15:30:33;;;;;;;16.95;7.38;;;;;;;11.14;78.21;96204.00;5089689;28;19924;-79
2021/10/27 15:51:48;;;;;;;18.42;7.18;;;;;;;10.38;81.51;96211.13;5074369;28;20040;-78
2021/10/27 15:54:15;;;;;;;25.00;12.32;;;;;;;10.28;84.01;96208.38;5067564;28;20044;-79
2021/10/27 15:56:41;;;;;;;27.17;14.15;;;;;;;10.26;86.25;96213.06;5066426;28;20105;-80
2021/10/27 15:59:07;;;;;;;30.13;15.23;;;;;;;10.14;87.42;96206.16;5078364;28;20048;-79
2021/10/27 16:01:32;;;;;;;35.50;16.98;;;;;;;10.09;87.51;96197.44;5072408;28;20413;-82
2021/10/27 16:03:58;;;;;;;34.35;16.30;;;;;;;10.00;88.38;96204.97;5065447;28;20087;-79
2021/10/27 16:06:26;;;;;;;40.30;17.25;;;;;;;9.87;89.51;96201.69;5070897;28;20044;-81
2021/10/27 16:08:55;;;;;;;35.58;17.20;;;;;;;9.78;90.49;96203.16;5088044;28;20064;-82
2021/10/27 16:11:21;;;;;;;32.83;17.15;;;;;;;9.77;90.72;96212.09;5080979;28;20560;-79
2021/10/27 16:13:46;;;;;;;39.17;19.15;;;;;;;9.70;92.14;96207.03;5064106;28;20045;-78
2021/10/27 16:16:14;;;;;;;40.60;19.63;;;;;;;9.60;91.94;96200.88;5081403;28;20524;-80
2021/10/27 16:18:40;;;;;;;39.38;20.42;;;;;;;9.47;92.99;96202.81;5069364;28;20044;-79
2021/10/27 16:21:06;;;;;;;46.55;20.75;;;;;;;9.38;94.01;96199.03;5070367;28;20040;-80
2021/10/27 16:23:32;;;;;;;43.55;20.20;;;;;;;9.24;94.37;96193.34;5080202;28;20096;-79
2021/10/27 16:25:58;;;;;;;40.75;18.83;;;;;;;9.17;94.38;96197.97;5061879;28;20051;-77
2021/10/27 16:28:25;;;;;;;41.25;19.95;;;;;;;9.11;95.76;96201.59;5059812;28;20060;-82
2021/10/27 16:30:52;;;;;;;38.65;19.55;;;;;;;9.03;95.07;96208.03;5061459;28;20037;-80
2021/10/27 16:33:21;;;;;;;48.38;20.83;;;;;;;8.88;96.09;96206.00;5059778;28;20135;-80
2021/10/27 16:35:50;;;;;;;39.22;19.58;;;;;;;8.72;96.16;96196.31;5051205;28;20154;-79
2021/10/27 16:38:17;;;;;;;38.70;19.48;;;;;;;8.76;96.59;96213.94;5068601;28;20049;-78